Time;durP1;ratioP1;P1;durP2;ratioP2;P2;SDS_P1;SDS_P2;PMS_P1;PMS_P2;Temp;Humidity;BMP_temperature;BMP_pressure;BME280_temperature;BME280_humidity;BME280_pressure;Samples;Min_cycle;Max_cycle;Signal;HPM_P1;HPM_P2
2021/07/26 00:01:24;;;;;;;10.00;5.25;;;18.40;67.00;;;;;;5033833;28;20071;-80
2021/07/26 00:03:50;;;;;;;7.63;5.28;;;18.40;67.00;;;;;;5051393;28;20029;-81
2021/07/26 00:06:16;;;;;;;7.32;5.07;;;18.40;67.30;;;;;;5054767;28;20083;-79
2021/07/26 00:08:42;;;;;;;14.77;5.90;;;18.40;67.30;;;;;;5055809;28;20025;-79
2021/07/26 00:11:10;;;;;;;8.73;4.47;;;18.40;67.30;;;;;;5055353;28;20055;-79
2021/07/26 00:13:37;;;;;;;10.13;5.50;;;18.40;67.30;;;;;;5055890;28;20024;-79
2021/07/26 00:16:04;;;;;;;9.55;5.75;;;18.40;66.80;;;;;;5056016;28;20071;-80
2021/07/26 00:18:31;;;;;;;11.05;6.07;;;18.30;67.30;;;;;;5056131;28;20041;-81
2021/07/26 00:20:59;;;;;;;7.95;5.78;;;18.30;67.60;;;;;;5056103;28;20055;-80
2021/07/26 00:23:26;;;;;;;15.38;6.05;;;18.30;67.80;;;;;;5057862;28;20048;-81
2021/07/26 00:25:52;;;;;;;10.40;5.55;;;18.30;67.80;;;;;;5056040;28;20417;-80
2021/07/26 00:28:19;;;;;;;10.85;5.13;;;18.30;67.40;;;;;;5055640;28;20047;-81
2021/07/26 00:30:44;;;;;;;8.02;4.97;;;18.30;67.30;;;;;;5037740;28;20056;-80
2021/07/26 00:34:06;;;;;;;6.65;4.60;;;18.30;67.00;;;;;;5055335;28;20060;-81
2021/07/26 00:36:33;;;;;;;7.70;4.50;;;18.30;66.60;;;;;;4999389;28;20037;-80
2021/07/26 00:38:59;;;;;;;7.10;4.85;;;18.30;67.00;;;;;;5055176;28;20082;-81
2021/07/26 00:41:25;;;;;;;7.60;4.80;;;18.20;66.80;;;;;;5037098;28;20025;-80
2021/07/26 00:43:51;;;;;;;7.90;4.93;;;18.20;66.60;;;;;;5055430;28;20032;-81
2021/07/26 00:46:17;;;;;;;8.20;5.22;;;18.20;66.80;;;;;;5054947;28;20029;-79
2021/07/26 00:48:44;;;;;;;11.60;4.28;;;18.20;66.70;;;;;;5055014;28;20041;-81
2021/07/26 00:51:11;;;;;;;8.68;4.40;;;18.20;66.90;;;;;;5055208;28;20441;-81
2021/07/26 00:53:38;;;;;;;7.45;4.75;;;18.20;66.70;;;;;;5055078;28;20090;-78
2021/07/26 00:56:05;;;;;;;11.70;3.83;;;18.20;66.60;;;;;;5054925;28;20091;-80
2021/07/26 00:58:31;;;;;;;7.13;4.63;;;18.20;66.70;;;;;;5054829;28;20017;-80
2021/07/26 01:00:58;;;;;;;11.80;4.35;;;18.30;66.20;;;;;;5054931;28;20029;-80
2021/07/26 01:03:23;;;;;;;6.22;4.28;;;18.30;65.80;;;;;;5054943;28;20494;-79
2021/07/26 01:05:49;;;;;;;8.18;4.03;;;18.30;65.80;;;;;;5036925;28;20033;-80
2021/07/26 01:08:15;;;;;;;5.18;4.05;;;18.30;65.50;;;;;;5054909;28;20434;-79
2021/07/26 01:10:41;;;;;;;5.25;3.92;;;18.40;65.50;;;;;;5055246;28;20067;-81
2021/07/26 01:13:07;;;;;;;5.88;4.00;;;18.40;65.50;;;;;;5054934;28;20156;-80
2021/07/26 01:15:33;;;;;;;7.18;4.30;;;18.40;65.30;;;;;;5055054;28;20115;-79
2021/07/26 01:18:27;;;;;;;7.05;4.97;;;18.50;65.20;;;;;;5053891;28;20029;-79
2021/07/26 01:20:55;;;;;;;7.07;4.70;;;18.50;65.00;;;;;;5054436;28;20088;-80
2021/07/26 01:23:22;;;;;;;11.15;4.20;;;18.50;65.10;;;;;;5054620;28;20094;-80
2021/07/26 01:25:48;;;;;;;6.65;4.00;;;18.50;65.00;;;;;;5054211;28;20031;-80
2021/07/26 01:28:15;;;;;;;9.50;4.82;;;18.50;65.00;;;;;;5054314;28;20040;-80
2021/07/26 01:30:42;;;;;;;6.35;4.20;;;18.40;65.00;;;;;;5054758;28;20028;-80
2021/07/26 01:33:09;;;;;;;7.30;4.03;;;18.40;65.20;;;;;;5054449;28;20025;-79
2021/07/26 01:35:36;;;;;;;8.38;4.57;;;18.50;65.50;;;;;;5054234;28;20500;-81
2021/07/26 01:38:03;;;;;;;11.10;5.00;;;18.40;65.40;;;;;;5054540;28;20017;-79
2021/07/26 01:40:29;;;;;;;11.07;4.53;;;18.40;65.50;;;;;;5054278;28;20051;-81
2021/07/26 01:43:02;;;;;;;5.45;3.92;;;18.40;65.20;;;;;;5054044;28;20017;-81
2021/07/26 01:45:29;;;;;;;6.93;4.70;;;18.40;65.80;;;;;;5054296;28;20075;-81
2021/07/26 01:48:11;;;;;;;6.78;4.07;;;18.40;65.50;;;;;;5053936;28;20053;-80
2021/07/26 01:51:15;;;;;;;7.13;4.40;;;18.50;65.50;;;;;;5053977;28;20045;-80
2021/07/26 01:53:44;;;;;;;10.18;4.65;;;18.60;65.00;;;;;;4954138;29;20027;-79
2021/07/26 01:56:11;;;;;;;9.13;4.00;;;18.60;65.00;;;;;;4954482;29;20449;-80
2021/07/26 01:58:37;;;;;;;6.97;4.97;;;18.70;65.00;;;;;;4953770;29;20524;-80
2021/07/26 02:01:02;;;;;;;7.20;4.25;;;18.70;64.70;;;;;;4953722;29;20043;-80
2021/07/26 02:03:30;;;;;;;9.30;4.68;;;18.80;64.20;;;;;;4953889;29;20370;-80
2021/07/26 02:05:56;;;;;;;8.63;4.55;;;18.90;64.00;;;;;;4953565;29;20032;-79
2021/07/26 02:08:22;;;;;;;7.72;4.15;;;19.00;64.00;;;;;;4953577;29;20078;-79
2021/07/26 02:10:48;;;;;;;7.32;4.38;;;19.00;63.60;;;;;;4937237;29;20539;-80
2021/07/26 02:13:14;;;;;;;10.52;4.30;;;19.00;63.30;;;;;;4953603;29;20077;-79
2021/07/26 02:15:40;;;;;;;7.53;4.82;;;19.20;63.20;;;;;;4953339;29;20521;-80
2021/07/26 02:18:06;;;;;;;6.03;3.88;;;19.20;63.20;;;;;;4953690;29;20118;-80
2021/07/26 02:20:32;;;;;;;7.30;4.40;;;19.20;62.40;;;;;;4953145;29;20154;-80
2021/07/26 02:22:58;;;;;;;8.55;4.80;;;19.30;62.50;;;;;;4953262;29;20039;-79
2021/07/26 02:25:24;;;;;;;9.50;4.88;;;19.30;62.60;;;;;;4953270;28;20035;-80
2021/07/26 02:27:50;;;;;;;11.90;4.45;;;19.40;62.50;;;;;;4996485;28;20037;-80
2021/07/26 02:30:16;;;;;;;9.23;3.78;;;19.40;62.10;;;;;;5053312;28;20098;-79
2021/07/26 02:32:42;;;;;;;8.95;4.78;;;19.40;61.90;;;;;;5053224;28;20482;-79
2021/07/26 02:35:09;;;;;;;7.40;4.55;;;19.40;62.00;;;;;;5053419;28;20052;-80
2021/07/26 02:37:35;;;;;;;6.78;4.25;;;19.40;61.90;;;;;;5053372;28;20382;-79
2021/07/26 02:40:01;;;;;;;8.75;4.00;;;19.40;62.00;;;;;;5053256;28;20429;-81
2021/07/26 02:42:27;;;;;;;7.20;4.07;;;19.40;62.40;;;;;;5053138;28;20100;-80
2021/07/26 02:44:53;;;;;;;6.00;3.65;;;19.40;61.60;;;;;;5051518;28;20076;-78
2021/07/26 02:47:19;;;;;;;7.63;3.78;;;19.50;61.40;;;;;;5052781;28;20399;-80
2021/07/26 02:49:44;;;;;;;6.40;4.13;;;19.50;61.40;;;;;;5052882;28;20061;-81
2021/07/26 02:52:10;;;;;;;4.95;4.00;;;19.50;61.60;;;;;;5052962;28;20059;-80
2021/07/26 02:54:36;;;;;;;6.18;3.28;;;19.50;61.30;;;;;;5053012;28;20029;-79
2021/07/26 02:57:02;;;;;;;8.98;4.07;;;19.50;61.20;;;;;;5053041;28;20498;-81
2021/07/26 02:59:28;;;;;;;4.82;3.78;;;19.60;61.10;;;;;;5035014;28;20114;-79
2021/07/26 03:01:54;;;;;;;6.60;3.75;;;19.70;61.70;;;;;;5053260;28;20463;-80
2021/07/26 03:04:19;;;;;;;8.05;3.85;;;19.90;61.10;;;;;;5053031;28;20049;-82
2021/07/26 03:06:45;;;;;;;8.05;4.03;;;20.10;60.60;;;;;;5052970;28;20040;-80
2021/07/26 03:09:11;;;;;;;7.35;4.22;;;20.30;59.90;;;;;;5052816;28;20416;-81
2021/07/26 03:11:37;;;;;;;7.45;4.10;;;20.50;59.30;;;;;;5053115;28;20383;-81
2021/07/26 03:14:04;;;;;;;7.47;4.18;;;20.60;58.60;;;;;;5052920;28;20025;-82
2021/07/26 03:16:30;;;;;;;8.20;3.87;;;20.70;58.30;;;;;;5052773;28;20018;-80
2021/07/26 03:18:56;;;;;;;6.78;4.38;;;20.70;58.30;;;;;;5052545;28;20051;-81
2021/07/26 03:21:22;;;;;;;8.77;4.50;;;20.70;58.40;;;;;;5054148;28;20021;-80
2021/07/26 03:23:48;;;;;;;5.53;3.67;;;20.70;58.40;;;;;;5052606;28;20052;-80
2021/07/26 03:26:13;;;;;;;5.95;3.88;;;20.80;58.60;;;;;;5052255;28;20068;-79
2021/07/26 03:28:40;;;;;;;6.22;3.72;;;20.70;58.50;;;;;;5053163;28;20021;-79
2021/07/26 03:31:06;;;;;;;6.55;4.45;;;20.80;58.50;;;;;;5052567;28;20038;-80
2021/07/26 03:33:32;;;;;;;8.40;4.20;;;20.80;58.20;;;;;;5052150;28;20024;-81
2021/07/26 03:35:57;;;;;;;5.30;3.80;;;20.70;58.70;;;;;;5052046;28;20071;-80
2021/07/26 03:38:24;;;;;;;6.65;3.90;;;20.70;58.20;;;;;;5052436;28;20409;-80
2021/07/26 03:40:50;;;;;;;5.57;4.33;;;20.70;58.20;;;;;;5051857;28;20025;-79
2021/07/26 03:43:17;;;;;;;8.70;4.07;;;20.90;58.30;;;;;;5052169;28;20029;-79
2021/07/26 03:45:43;;;;;;;7.88;3.65;;;21.00;58.00;;;;;;5052167;28;20091;-80
2021/07/26 03:48:09;;;;;;;9.63;4.43;;;21.20;57.60;;;;;;5052130;28;20037;-80
2021/07/26 03:50:35;;;;;;;10.65;5.35;;;21.20;57.10;;;;;;5052420;28;20378;-80
2021/07/26 03:53:01;;;;;;;9.57;4.32;;;21.30;57.20;;;;;;5052405;28;20497;-81
2021/07/26 03:55:37;;;;;;;7.40;4.40;;;21.50;56.40;;;;;;5053499;28;20029;-79
2021/07/26 03:58:03;;;;;;;10.82;3.90;;;21.50;56.40;;;;;;5053229;28;20024;-80
2021/07/26 04:00:30;;;;;;;7.40;4.00;;;21.50;56.50;;;;;;5052136;28;20100;-79
2021/07/26 04:03:06;;;;;;;7.50;3.80;;;21.60;56.60;;;;;;5052098;28;20028;-79
2021/07/26 04:05:39;;;;;;;8.00;4.68;;;21.60;56.70;;;;;;5052038;28;20037;-80
2021/07/26 04:08:07;;;;;;;8.40;3.58;;;21.70;56.70;;;;;;5053082;28;20372;-80
2021/07/26 04:10:35;;;;;;;8.30;4.82;;;21.80;56.00;;;;;;5052392;28;20087;-81
2021/07/26 04:13:01;;;;;;;7.15;4.32;;;21.80;56.50;;;;;;5052315;28;20028;-80
2021/07/26 04:15:26;;;;;;;10.07;4.28;;;21.80;56.10;;;;;;5053119;28;20025;-80
2021/07/26 04:17:52;;;;;;;6.28;3.50;;;21.90;55.50;;;;;;5053912;28;20391;-81
2021/07/26 04:20:18;;;;;;;9.07;3.97;;;21.90;55.10;;;;;;5051124;28;20036;-82
2021/07/26 04:22:44;;;;;;;6.22;3.95;;;22.00;54.60;;;;;;5036226;28;20029;-81
2021/07/26 04:25:10;;;;;;;6.72;4.85;;;22.00;54.30;;;;;;5040896;28;20029;-83
2021/07/26 04:27:36;;;;;;;14.25;4.93;;;22.00;54.50;;;;;;5047827;28;20134;-80
2021/07/26 04:30:04;;;;;;;9.27;4.60;;;22.00;55.30;;;;;;5052028;28;20021;-82
2021/07/26 04:32:30;;;;;;;8.30;6.30;;;22.10;55.30;;;;;;5045919;28;20029;-81
2021/07/26 04:34:59;;;;;;;13.70;8.02;;;22.20;55.00;;;;;;5052008;28;20390;-81
2021/07/26 04:37:25;;;;;;;19.02;10.50;;;22.30;54.80;;;;;;5045230;28;20032;-80
2021/07/26 04:39:51;;;;;;;15.50;10.68;;;22.30;54.10;;;;;;5051462;28;20079;-80
2021/07/26 04:42:17;;;;;;;15.35;8.80;;;22.40;53.80;;;;;;5051400;28;20029;-79
2021/07/26 04:44:43;;;;;;;15.43;9.20;;;22.50;54.20;;;;;;5051542;28;20021;-81
2021/07/26 04:47:09;;;;;;;15.63;9.90;;;22.50;53.70;;;;;;5050547;28;20506;-80
2021/07/26 04:49:37;;;;;;;12.23;10.10;;;22.60;53.10;;;;;;5051332;28;20049;-82
2021/07/26 04:52:03;;;;;;;14.50;9.80;;;22.60;53.20;;;;;;5044311;28;20463;-80
2021/07/26 04:54:29;;;;;;;13.30;9.63;;;22.60;53.50;;;;;;5055137;28;20021;-80
2021/07/26 04:56:55;;;;;;;15.05;9.68;;;22.70;53.00;;;;;;5055198;28;20025;-81
2021/07/26 04:59:21;;;;;;;16.73;9.20;;;22.70;52.20;;;;;;5055322;28;20025;-81
2021/07/26 05:01:47;;;;;;;15.18;9.23;;;22.70;51.60;;;;;;5056494;28;20109;-80
2021/07/26 05:04:12;;;;;;;13.80;9.07;;;22.80;52.30;;;;;;5055110;28;20070;-79
2021/07/26 05:06:38;;;;;;;13.95;7.90;;;23.20;52.10;;;;;;5033122;28;20033;-77
2021/07/26 05:09:04;;;;;;;13.98;8.82;;;24.00;50.20;;;;;;5052665;28;20021;-79
2021/07/26 05:11:30;;;;;;;11.55;7.63;;;24.80;47.90;;;;;;5054477;28;20398;-80
2021/07/26 05:13:56;;;;;;;13.55;8.38;;;;;;;;;;5054582;28;20029;-81
2021/07/26 05:16:22;;;;;;;10.98;6.50;;;26.70;44.40;;;;;;5051515;28;20094;-82
2021/07/26 05:18:52;;;;;;;13.65;7.07;;;27.50;42.50;;;;;;5036408;28;20032;-84
2021/07/26 05:21:18;;;;;;;12.88;6.53;;;28.20;42.20;;;;;;5048914;28;20025;-82
2021/07/26 05:23:43;;;;;;;15.38;6.22;;;29.20;40.60;;;;;;5054274;28;20071;-79
2021/07/26 05:26:09;;;;;;;10.25;6.25;;;29.70;39.10;;;;;;5053847;28;20021;-82
2021/07/26 05:28:35;;;;;;;9.25;4.75;;;30.00;38.30;;;;;;5036810;28;20094;-81
2021/07/26 05:31:01;;;;;;;9.70;5.13;;;30.30;37.90;;;;;;5054342;28;20017;-80
2021/07/26 05:33:27;;;;;;;8.80;5.15;;;30.70;37.30;;;;;;5054481;28;20100;-80
2021/07/26 05:35:53;;;;;;;11.63;4.90;;;31.50;36.50;;;;;;5054006;28;20095;-82
2021/07/26 05:38:19;;;;;;;9.88;5.38;;;31.80;35.60;;;;;;5054564;28;20046;-82
2021/07/26 05:40:45;;;;;;;10.98;5.05;;;32.10;35.10;;;;;;5053896;28;20040;-80
2021/07/26 05:43:11;;;;;;;7.95;5.45;;;32.50;34.70;;;;;;5053852;28;20040;-81
2021/07/26 05:45:38;;;;;;;12.63;5.18;;;33.00;34.40;;;;;;5054197;28;20608;-79
2021/07/26 05:48:04;;;;;;;10.07;5.35;;;33.60;33.80;;;;;;5053962;28;20441;-81
2021/07/26 05:50:31;;;;;;;9.13;5.22;;;34.20;33.50;;;;;;5036097;28;20417;-81
2021/07/26 05:52:57;;;;;;;6.85;4.85;;;34.60;32.90;;;;;;5054214;28;20021;-84
2021/07/26 05:55:22;;;;;;;7.50;4.67;;;34.50;32.60;;;;;;5053917;28;20071;-85
2021/07/26 05:57:51;;;;;;;8.10;5.70;;;;;;;;;;5054026;28;20040;-82
2021/07/26 06:00:24;;;;;;;6.88;4.88;;;35.50;31.40;;;;;;5053888;28;20025;-77
2021/07/26 06:02:50;;;;;;;9.07;4.90;;;35.90;31.00;;;;;;5053398;28;20025;-78
2021/07/26 06:05:16;;;;;;;8.43;4.93;;;36.00;31.10;;;;;;5053586;28;20017;-80
2021/07/26 06:07:42;;;;;;;7.03;4.60;;;36.80;31.00;;;;;;5053328;28;20032;-82
2021/07/26 06:10:08;;;;;;;4.87;3.83;;;37.80;29.90;;;;;;5053949;28;20044;-80
2021/07/26 06:12:34;;;;;;;;;;;37.90;29.00;;;;;;5053859;28;20090;-80
2021/07/26 06:15:00;;;;;;;7.68;3.85;;;38.10;30.10;;;;;;5053775;28;19904;-81
2021/07/26 06:17:26;;;;;;;7.65;3.78;;;38.40;29.20;;;;;;5053870;28;20052;-81
2021/07/26 06:19:52;;;;;;;8.05;4.20;;;38.90;28.70;;;;;;5053679;28;20024;-81
2021/07/26 06:22:18;;;;;;;5.30;3.30;;;39.40;28.20;;;;;;5053613;28;20048;-81
2021/07/26 06:24:43;;;;;;;5.95;3.20;;;39.20;28.20;;;;;;5053424;28;20017;-79
2021/07/26 06:27:10;;;;;;;8.20;3.50;;;39.40;28.20;;;;;;5053555;28;20029;-82
2021/07/26 06:29:36;;;;;;;6.95;4.15;;;39.70;28.10;;;;;;5035296;28;20017;-83
2021/07/26 06:32:03;;;;;;;6.70;3.88;;;40.00;27.80;;;;;;5052706;28;20051;-83
2021/07/26 06:34:30;;;;;;;9.18;3.22;;;40.60;27.50;;;;;;5037599;28;20025;-83
2021/07/26 06:36:56;;;;;;;5.65;2.85;;;41.00;26.90;;;;;;5055543;28;20033;-79
2021/07/26 06:39:22;;;;;;;;;;;41.10;26.90;;;;;;5035888;28;20390;-83
2021/07/26 06:41:47;;;;;;;9.35;4.07;;;41.10;27.70;;;;;;5053702;28;19908;-82
2021/07/26 06:44:13;;;;;;;9.85;4.25;;;40.40;27.00;;;;;;5035305;28;20124;-79
2021/07/26 06:46:39;;;;;;;9.55;4.13;;;39.70;27.30;;;;;;5052923;28;20433;-80
2021/07/26 06:49:05;;;;;;;6.97;4.05;;;39.90;27.70;;;;;;5035293;28;20484;-83
2021/07/26 06:51:31;;;;;;;9.98;4.32;;;40.90;27.40;;;;;;5052989;28;20048;-83
2021/07/26 06:53:57;;;;;;;6.38;3.92;;;41.60;26.60;;;;;;5053288;28;20480;-82
2021/07/26 06:56:23;;;;;;;6.30;4.97;;;41.70;26.50;;;;;;5052810;28;20044;-83
2021/07/26 06:58:49;;;;;;;7.68;4.95;;;42.00;26.40;;;;;;5052611;28;20028;-81
2021/07/26 07:01:16;;;;;;;7.22;2.75;;;42.70;26.50;;;;;;5036120;28;20379;-83
2021/07/26 07:03:43;;;;;;;6.25;3.03;;;42.70;25.70;;;;;;5053343;28;20092;-84
2021/07/26 07:06:11;;;;;;;4.03;3.13;;;42.00;26.00;;;;;;5053906;28;20482;-83
2021/07/26 07:08:39;;;;;;;8.23;3.97;;;41.40;26.80;;;;;;5053455;28;20063;-86
2021/07/26 07:11:09;;;;;;;6.30;3.28;;;40.70;26.70;;;;;;5037189;28;20017;-85
2021/07/26 07:13:37;;;;;;;7.25;3.08;;;39.40;27.00;;;;;;5053349;28;20090;-80
2021/07/26 07:16:10;;;;;;;9.27;3.88;;;38.90;27.80;;;;;;5051791;28;20459;-83
2021/07/26 07:18:37;;;;;;;14.38;3.40;;;40.00;27.30;;;;;;5052679;28;20382;-83
2021/07/26 07:21:04;;;;;;;12.48;3.72;;;41.20;26.50;;;;;;5052384;28;20044;-81
2021/07/26 07:23:30;;;;;;;7.03;3.13;;;41.90;26.10;;;;;;5052872;28;20021;-83
2021/07/26 07:25:56;;;;;;;7.68;2.90;;;42.30;25.80;;;;;;5052795;28;20020;-82
2021/07/26 07:28:22;;;;;;;7.38;3.20;;;42.90;25.60;;;;;;5052937;28;20071;-81
2021/07/26 07:30:47;;;;;;;;;;;43.80;25.30;;;;;;5052743;28;20116;-83
2021/07/26 07:33:13;;;;;;;6.10;2.80;;;44.40;25.70;;;;;;5052474;28;19905;-81
2021/07/26 07:35:39;;;;;;;;;;;44.10;24.90;;;;;;5053105;28;20028;-81
2021/07/26 07:38:05;;;;;;;6.93;3.95;;;42.50;25.40;;;;;;5034385;28;19904;-81
2021/07/26 07:40:31;;;;;;;5.90;3.13;;;40.40;26.40;;;;;;5052035;28;20025;-81
2021/07/26 07:42:57;;;;;;;8.05;3.80;;;40.20;27.00;;;;;;5052428;28;20033;-83
2021/07/26 07:45:22;;;;;;;11.43;3.55;;;38.70;26.50;;;;;;5052321;28;20049;-82
2021/07/26 07:47:51;;;;;;;8.80;4.68;;;38.10;27.70;;;;;;5051840;28;20059;-83
2021/07/26 07:50:20;;;;;;;13.77;4.88;;;37.30;28.00;;;;;;5052472;28;20029;-81
2021/07/26 07:52:46;;;;;;;13.55;4.50;;;35.90;29.20;;;;;;5052282;28;20053;-80
2021/07/26 07:55:12;;;;;;;12.10;5.20;;;34.90;29.90;;;;;;5052104;28;20045;-83
2021/07/26 07:57:38;;;;;;;9.02;4.72;;;34.00;30.80;;;;;;5052121;28;20025;-81
2021/07/26 08:00:05;;;;;;;7.43;3.70;;;32.90;31.50;;;;;;5039504;28;20030;-81
2021/07/26 08:02:32;;;;;;;8.93;3.95;;;31.90;32.60;;;;;;5052170;28;20017;-82
2021/07/26 08:04:57;;;;;;;6.32;3.80;;;30.90;34.00;;;;;;5034335;28;20041;-80
2021/07/26 08:07:23;;;;;;;6.10;4.50;;;30.30;34.80;;;;;;5053614;28;20507;-83
2021/07/26 08:09:49;;;;;;;7.22;4.10;;;29.90;35.50;;;;;;5052935;28;20025;-79
2021/07/26 08:12:15;;;;;;;8.68;5.05;;;29.60;35.70;;;;;;5052142;28;20052;-79
2021/07/26 08:14:41;;;;;;;7.57;4.55;;;29.50;36.20;;;;;;5033970;28;20013;-81
2021/07/26 08:17:07;;;;;;;8.85;4.55;;;29.50;36.30;;;;;;5051783;28;20490;-79
2021/07/26 08:19:33;;;;;;;6.20;4.30;;;29.40;36.30;;;;;;5038006;28;20013;-81
2021/07/26 08:21:59;;;;;;;13.45;4.78;;;29.00;36.40;;;;;;5051958;28;20095;-81
2021/07/26 08:24:24;;;;;;;8.75;3.80;;;28.70;37.10;;;;;;5054004;28;20052;-82
2021/07/26 08:26:50;;;;;;;5.43;3.75;;;28.50;37.60;;;;;;5055192;28;20096;-80
2021/07/26 08:29:16;;;;;;;6.70;3.50;;;28.40;37.30;;;;;;5055487;28;20052;-81
2021/07/26 08:31:42;;;;;;;6.82;3.75;;;28.20;37.40;;;;;;5055853;28;20158;-81
2021/07/26 08:34:09;;;;;;;8.23;3.65;;;27.90;38.20;;;;;;5037416;28;20059;-81
2021/07/26 08:36:35;;;;;;;;;;;28.00;38.70;;;;;;5056304;28;20033;-81
2021/07/26 08:39:02;;;;;;;6.50;3.70;;;28.30;37.80;;;;;;5055776;28;19912;-82
2021/07/26 08:41:27;;;;;;;5.65;3.60;;;28.60;38.10;;;;;;5056211;28;20020;-83
2021/07/26 08:43:53;;;;;;;8.38;3.22;;;28.90;37.00;;;;;;5056062;28;20431;-80
2021/07/26 08:46:20;;;;;;;7.65;3.55;;;29.90;36.50;;;;;;5055725;28;20036;-81
2021/07/26 08:48:48;;;;;;;10.52;3.40;;;30.60;35.10;;;;;;5055362;28;20069;-83
2021/07/26 08:51:20;;;;;;;4.70;2.95;;;30.30;35.30;;;;;;5055457;28;20025;-83
2021/07/26 08:53:48;;;;;;;9.13;4.03;;;30.20;35.10;;;;;;5037435;28;20462;-82
2021/07/26 08:56:16;;;;;;;6.18;3.55;;;30.70;35.60;;;;;;5055340;28;20052;-81
2021/07/26 08:58:42;;;;;;;6.35;3.70;;;31.00;35.20;;;;;;5055272;28;20028;-83
2021/07/26 09:01:12;;;;;;;8.87;3.40;;;30.70;34.80;;;;;;5056454;28;20021;-82
2021/07/26 09:03:37;;;;;;;4.50;3.25;;;30.80;34.70;;;;;;5055013;28;20095;-82
2021/07/26 09:06:03;;;;;;;5.88;3.83;;;30.60;34.90;;;;;;5055072;28;20417;-81
2021/07/26 09:08:35;;;;;;;7.38;3.10;;;30.30;35.40;;;;;;5056562;28;20020;-80
2021/07/26 09:11:03;;;;;;;10.15;3.58;;;30.10;35.50;;;;;;5059038;28;20021;-81
2021/07/26 09:13:44;;;;;;;6.00;3.03;;;29.60;35.60;;;;;;5056792;28;20490;-82
2021/07/26 09:16:17;;;;;;;3.47;2.72;;;29.20;36.30;;;;;;5023897;28;20512;-84
2021/07/26 09:18:45;;;;;;;6.95;3.33;;;28.70;36.90;;;;;;5037668;28;20082;-82
2021/07/26 09:21:11;;;;;;;5.53;3.55;;;;;;;;;;5054427;28;20013;-82
2021/07/26 09:24:01;;;;;;;5.33;3.00;;;28.50;38.30;;;;;;5055299;28;20053;-83
2021/07/26 09:26:28;;;;;;;10.63;3.35;;;27.80;37.70;;;;;;5055452;28;20031;-82
2021/07/26 09:28:54;;;;;;;4.20;2.80;;;27.80;38.20;;;;;;5055351;28;20159;-82
2021/07/26 09:31:19;;;;;;;4.18;2.85;;;27.60;38.30;;;;;;5054669;28;20510;-82
2021/07/26 09:33:45;;;;;;;7.18;3.10;;;27.40;38.10;;;;;;5055261;28;20031;-82
2021/07/26 09:36:19;;;;;;;4.80;3.40;;;27.40;38.60;;;;;;5054763;28;20029;-82
2021/07/26 09:38:53;;;;;;;6.13;2.97;;;27.60;38.80;;;;;;5057220;28;20182;-84
2021/07/26 09:41:45;;;;;;;5.72;2.78;;;27.90;38.30;;;;;;5062153;28;20025;-82
2021/07/26 09:44:12;;;;;;;6.65;3.97;;;28.20;38.00;;;;;;5055196;28;20021;-81
2021/07/26 09:46:39;;;;;;;10.25;4.63;;;28.40;37.10;;;;;;5037269;28;20398;-82
2021/07/26 09:49:09;;;;;;;5.10;2.60;;;28.60;36.80;;;;;;5054831;28;20094;-81
2021/07/26 09:51:36;;;;;;;6.40;2.75;;;29.10;36.70;;;;;;5054498;28;20021;-83
2021/07/26 09:54:01;;;;;;;4.55;3.00;;;29.60;36.60;;;;;;5054892;28;20534;-83
2021/07/26 09:56:33;;;;;;;6.75;3.28;;;29.90;35.60;;;;;;5054457;28;20121;-82
2021/07/26 09:59:01;;;;;;;4.13;3.10;;;30.10;35.30;;;;;;5054587;28;20047;-83
2021/07/26 10:01:27;;;;;;;5.88;3.15;;;30.20;34.70;;;;;;5054957;28;20025;-82
2021/07/26 10:03:53;;;;;;;5.75;2.55;;;30.20;34.10;;;;;;5054226;28;20017;-81
2021/07/26 10:06:20;;;;;;;4.05;2.85;;;30.40;34.90;;;;;;5054023;28;20032;-82
2021/07/26 10:08:48;;;;;;;6.55;3.67;;;30.70;34.30;;;;;;5036603;28;20127;-81
2021/07/26 10:11:17;;;;;;;5.15;2.95;;;30.60;34.30;;;;;;5054550;28;20029;-82
2021/07/26 10:13:47;;;;;;;5.80;2.63;;;30.70;34.30;;;;;;5054597;28;20032;-81
2021/07/26 10:16:17;;;;;;;5.10;3.00;;;30.70;34.80;;;;;;5040763;28;20054;-82
2021/07/26 10:18:44;;;;;;;5.32;3.05;;;30.60;35.40;;;;;;5054083;28;20025;-82
2021/07/26 10:21:23;;;;;;;5.90;3.60;;;30.50;34.40;;;;;;5054229;28;20021;-82
2021/07/26 10:23:54;;;;;;;4.45;2.65;;;30.40;34.90;;;;;;5036476;28;20482;-82
2021/07/26 10:26:30;;;;;;;7.90;3.17;;;30.40;35.00;;;;;;5035723;28;20111;-82
2021/07/26 10:28:56;;;;;;;4.97;3.85;;;30.70;35.10;;;;;;5054317;28;20028;-82
2021/07/26 10:31:28;;;;;;;6.63;3.30;;;30.70;34.40;;;;;;5053630;28;20030;-81
2021/07/26 10:34:09;;;;;;;5.18;4.05;;;30.80;34.30;;;;;;5054247;28;20029;-82
2021/07/26 10:36:44;;;;;;;7.00;2.92;;;30.80;34.80;;;;;;5040114;28;20037;-83
2021/07/26 10:39:13;;;;;;;6.07;3.40;;;31.00;33.10;;;;;;5054464;28;20021;-82
2021/07/26 10:41:45;;;;;;;5.00;3.50;;;31.00;33.50;;;;;;5053749;28;20102;-84
2021/07/26 10:44:17;;;;;;;5.82;2.65;;;31.10;33.10;;;;;;5055680;28;20470;-84
2021/07/26 10:47:04;;;;;;;5.75;2.90;;;31.10;33.20;;;;;;5055608;28;20055;-83
2021/07/26 10:49:50;;;;;;;8.13;5.03;;;30.60;32.90;;;;;;5036252;28;20486;-84
2021/07/26 10:52:22;;;;;;;8.30;4.03;;;30.20;33.90;;;;;;5053652;28;20475;-82
2021/07/26 10:54:48;;;;;;;5.32;2.97;;;30.10;34.00;;;;;;5053389;28;20281;-83
2021/07/26 10:57:14;;;;;;;5.80;3.20;;;29.70;33.70;;;;;;5052990;28;20116;-83
2021/07/26 11:00:08;;;;;;;4.43;2.83;;;29.60;34.70;;;;;;5054422;28;20021;-81
2021/07/26 11:02:36;;;;;;;5.55;2.90;;;29.90;34.60;;;;;;5039180;28;20017;-81
2021/07/26 11:05:26;;;;;;;4.38;3.22;;;30.10;35.00;;;;;;5054230;28;20032;-82
2021/07/26 11:08:14;;;;;;;5.30;3.17;;;30.30;34.10;;;;;;5023202;28;20032;-82
2021/07/26 11:10:49;;;;;;;5.43;3.00;;;30.00;33.60;;;;;;5053445;28;20025;-82
2021/07/26 11:13:16;;;;;;;5.72;3.67;;;29.90;33.90;;;;;;5063747;28;20025;-81
2021/07/26 11:15:50;;;;;;;4.68;3.25;;;30.00;34.00;;;;;;5052940;28;20025;-82
2021/07/26 11:18:37;;;;;;;4.65;2.75;;;30.10;34.20;;;;;;5052894;28;20032;-81
2021/07/26 11:21:12;;;;;;;6.47;3.15;;;30.00;34.30;;;;;;5052548;28;20099;-84
2021/07/26 11:23:42;;;;;;;6.25;3.33;;;30.10;34.60;;;;;;5053138;28;20029;-83
2021/07/26 11:26:29;;;;;;;4.30;2.97;;;30.20;34.30;;;;;;5034879;28;20024;-80
2021/07/26 11:29:02;;;;;;;6.20;3.35;;;30.20;34.30;;;;;;5052758;28;20031;-81
2021/07/26 11:31:40;;;;;;;6.40;3.25;;;30.20;33.70;;;;;;5021145;28;20090;-81
2021/07/26 11:34:14;;;;;;;4.35;3.17;;;30.10;33.20;;;;;;5053205;28;20404;-82
2021/07/26 11:37:09;;;;;;;4.32;3.00;;;29.90;33.70;;;;;;5039686;28;20033;-82
2021/07/26 11:39:54;;;;;;;5.35;3.03;;;30.10;33.80;;;;;;5053040;28;20500;-82
2021/07/26 11:42:25;;;;;;;5.10;3.65;;;30.20;34.20;;;;;;5053460;28;20393;-80
2021/07/26 11:44:52;;;;;;;6.22;3.35;;;30.10;33.90;;;;;;5052330;28;20028;-79
2021/07/26 11:47:28;;;;;;;4.65;3.17;;;30.10;34.50;;;;;;5052439;28;20160;-83
2021/07/26 11:49:54;;;;;;;5.53;3.58;;;29.80;34.40;;;;;;5034007;28;20045;-80
2021/07/26 11:52:20;;;;;;;5.60;2.70;;;29.90;34.90;;;;;;5052092;28;20029;-83
2021/07/26 11:54:46;;;;;;;4.05;3.33;;;29.90;34.60;;;;;;5052047;28;20112;-83
2021/07/26 11:57:14;;;;;;;7.45;3.05;;;30.00;34.00;;;;;;5052065;28;20485;-81
2021/07/26 11:59:46;;;;;;;6.43;3.92;;;29.80;34.30;;;;;;5052695;28;20014;-83
2021/07/26 12:02:28;;;;;;;5.32;4.18;;;29.90;34.80;;;;;;5058134;28;20454;-83
2021/07/26 12:05:04;;;;;;;9.90;3.63;;;30.00;34.20;;;;;;5056363;28;20021;-82
2021/07/26 12:08:00;;;;;;;4.72;3.50;;;30.00;33.90;;;;;;5056315;28;20415;-83
2021/07/26 12:10:36;;;;;;;5.38;3.30;;;30.00;34.00;;;;;;5036610;28;20037;-82
2021/07/26 12:13:10;;;;;;;4.30;2.50;;;29.90;34.10;;;;;;5059192;28;20063;-82
2021/07/26 12:15:37;;;;;;;6.80;3.45;;;29.90;34.80;;;;;;5058224;28;20386;-81
2021/07/26 12:18:08;;;;;;;3.92;3.20;;;29.90;34.50;;;;;;5055680;28;20091;-83
2021/07/26 12:20:39;;;;;;;8.75;3.72;;;29.80;34.40;;;;;;5037683;28;20021;-82
2021/07/26 12:23:12;;;;;;;5.80;3.30;;;29.70;34.20;;;;;;5056063;28;20048;-82
2021/07/26 12:25:46;;;;;;;6.13;3.30;;;29.50;35.30;;;;;;5055938;28;20110;-81
2021/07/26 12:28:13;;;;;;;3.78;3.08;;;29.40;34.90;;;;;;5056472;28;20121;-80
2021/07/26 12:30:43;;;;;;;7.50;3.30;;;29.40;34.90;;;;;;5055904;28;20044;-85
2021/07/26 12:33:10;;;;;;;4.55;2.80;;;29.50;35.70;;;;;;5055546;28;20028;-82
2021/07/26 12:35:36;;;;;;;8.18;3.83;;;29.40;35.40;;;;;;5056113;28;20017;-81
2021/07/26 12:38:06;;;;;;;4.00;3.23;;;29.40;34.90;;;;;;5055926;28;20029;-83
2021/07/26 12:40:35;;;;;;;6.30;4.07;;;29.30;35.00;;;;;;5055591;28;20494;-81
2021/07/26 12:43:05;;;;;;;5.15;3.10;;;29.30;35.10;;;;;;5056249;28;20497;-83
2021/07/26 12:45:31;;;;;;;4.80;3.28;;;29.20;35.10;;;;;;5061603;28;20425;-84
2021/07/26 12:47:58;;;;;;;7.97;3.55;;;29.10;35.40;;;;;;5057827;28;20431;-83
2021/07/26 12:50:24;;;;;;;5.38;2.92;;;29.30;35.60;;;;;;5056536;28;20024;-83
2021/07/26 12:52:50;;;;;;;7.38;4.00;;;29.30;35.50;;;;;;5057538;28;20051;-82
2021/07/26 12:55:16;;;;;;;6.22;3.97;;;29.30;35.90;;;;;;5048313;28;20025;-81